Time;durP1;ratioP1;P1;durP2;ratioP2;P2;SDS_P1;SDS_P2;PMS_P1;PMS_P2;Temp;Humidity;BMP_temperature;BMP_pressure;BME280_temperature;BME280_humidity;BME280_pressure;Samples;Min_cycle;Max_cycle;Signal;HPM_P1;HPM_P2
2023/07/07 05:12:41;;;;;;;;;;;;;;;6.29;100.00;99933.53;5227164;23;19964;-87
2023/07/07 05:15:06;;;;;;;;;;;;;;;6.28;100.00;99937.06;5002415;28;19976;-87
2023/07/07 05:17:31;;;;;;;;;;;;;;;6.29;100.00;99936.19;5001672;28;20292;-87
2023/07/07 05:19:57;;;;;;;;;;;;;;;6.32;100.00;99935.25;5001912;28;19925;-84
2023/07/07 05:22:22;;;;;;;;;;;;;;;6.38;100.00;99934.22;5004635;28;19922;-86
2023/07/07 05:24:47;;;;;;;;;;;;;;;6.38;100.00;99928.97;5006449;28;19918;-87
2023/07/07 05:27:13;;;;;;;;;;;;;;;6.40;100.00;99929.78;4986107;28;20368;-86
2023/07/07 05:32:24;;;;;;;;;;;;;;;6.30;100.00;99937.91;5005688;28;19983;-87
2023/07/07 05:34:49;;;;;;;;;;;;;;;6.29;100.00;99941.44;5006065;28;20436;-89
2023/07/07 05:37:15;;;;;;;;;;;;;;;6.33;100.00;99943.13;4987903;28;19922;-89
2023/07/07 05:39:40;;;;;;;;;;;;;;;6.28;100.00;99944.97;4987981;28;20288;-89
2023/07/07 05:42:06;;;;;;;;;;;;;;;6.25;100.00;99939.75;5004204;28;20387;-89
2023/07/07 05:44:31;;;;;;;;;;;;;;;6.35;100.00;99938.66;4988281;28;20012;-89
2023/07/07 05:46:56;;;;;;;;;;;;;;;6.47;100.00;99949.81;5005288;28;19918;-89
2023/07/07 05:49:22;;;;;;;;;;;;;;;6.34;100.00;99943.97;5005354;28;19921;-89
2023/07/07 05:51:47;;;;;;;;;;;;;;;6.35;100.00;99946.56;4987752;28;20360;-89
2023/07/07 05:54:13;;;;;;;;;;;;;;;6.31;100.00;99947.53;5005545;28;19928;-88
2023/07/07 05:56:39;;;;;;;;;;;;;;;6.28;100.00;99949.38;5004320;28;19917;-88
2023/07/07 05:59:04;;;;;;;;;;;;;;;6.30;100.00;99951.06;4987744;28;20234;-88
2023/07/07 06:01:30;;;;;;;;;;;;;;;6.24;100.00;99948.59;5004860;28;20008;-88
2023/07/07 06:03:55;;;;;;;;;;;;;;;6.21;100.00;99953.03;5004782;28;19941;-88
2023/07/07 06:06:20;;;;;;;;;;;;;;;6.28;100.00;99944.97;4987880;28;19924;-88
2023/07/07 06:08:46;;;;;;;;;;;;;;;6.31;100.00;99944.03;4987704;28;19984;-88
2023/07/07 06:11:11;;;;;;;;;;;;;;;6.35;100.00;99946.56;5003585;28;19945;-88
2023/07/07 06:13:36;;;;;;;;;;;;;;;6.33;100.00;99942.22;4987300;28;19953;-86
2023/07/07 06:16:02;;;;;;;;;;;;;;;6.30;100.00;99950.19;5005251;28;19918;-87
2023/07/07 06:18:27;;;;;;;;;;;;;;;6.34;100.00;99949.22;5004965;28;19918;-87
2023/07/07 06:20:57;;;;;;;;;;;;;;;6.24;100.00;99950.31;5004628;28;19918;-88
2023/07/07 06:23:23;;;;;;;;;;;;;;;6.22;100.00;99952.13;5003854;28;20285;-85
2023/07/07 06:25:48;;;;;;;;;;;;;;;6.26;100.00;99954.66;5002969;28;19921;-87
2023/07/07 06:28:15;;;;;;;;;;;;;;;6.25;100.00;99952.91;5005064;28;19922;-86
2023/07/07 06:30:40;;;;;;;;;;;;;;;6.25;100.00;99955.56;5005083;28;20372;-88
2023/07/07 06:33:05;;;;;;;;;;;;;;;6.23;100.00;99945.97;5003708;28;19917;-89
2023/07/07 06:35:31;;;;;;;;;;;;;;;6.22;100.00;99960.03;5004119;28;20369;-89
2023/07/07 06:37:56;;;;;;;;;;;;;;;6.16;100.00;99961.03;5003987;28;19918;-88
2023/07/07 06:40:21;;;;;;;;;;;;;;;6.24;100.00;99964.38;5004415;28;20039;-89
2023/07/07 06:42:48;;;;;;;;;;;;;;;6.18;100.00;99959.25;5003492;28;19996;-88
2023/07/07 06:45:13;;;;;;;;;;;;;;;6.18;100.00;99953.97;5003121;28;19917;-88
2023/07/07 06:47:41;;;;;;;;;;;;;;;6.19;100.00;99953.09;5004202;28;20280;-88
2023/07/07 06:50:06;;;;;;;;;;;;;;;6.16;100.00;99955.78;5003541;28;19922;-86
2023/07/07 06:52:31;;;;;;;;;;;;;;;6.31;100.00;99960.69;5004285;28;20323;-91
2023/07/07 06:54:57;;;;;;;;;;;;;;;6.29;100.00;99959.00;5004390;28;20353;-88
2023/07/07 06:57:22;;;;;;;;;;;;;;;6.31;100.00;99957.19;5002751;28;20361;-88
2023/07/07 06:59:48;;;;;;;;;;;;;;;6.30;100.00;99958.09;5003987;28;20313;-88
2023/07/07 07:02:13;;;;;;;;;;;;;;;6.28;100.00;99960.75;5004194;28;19925;-88
2023/07/07 07:04:39;;;;;;;;;;;;;;;6.30;100.00;99963.34;5004453;28;19921;-91
2023/07/07 07:07:05;;;;;;;;;;;;;;;6.31;100.00;99959.81;5003721;28;19918;-87
2023/07/07 07:09:30;;;;;;;;;;;;;;;6.33;100.00;99958.91;5003741;28;20303;-87
2023/07/07 07:11:55;;;;;;;;;;;;;;;6.32;100.00;99957.16;5002958;28;19980;-87
2023/07/07 07:41:42;;;;;;;;;;;;;;;6.21;100.00;99922.34;5894403;23;20383;-85
2023/07/07 07:44:08;;;;;;;;;;;;;;;6.20;100.00;99925.00;5002267;28;20346;-86
2023/07/07 07:46:33;;;;;;;;;;;;;;;6.30;100.00;99916.88;5003368;28;20028;-86
2023/07/07 07:48:58;;;;;;;;;;;;;;;6.24;100.00;99917.00;5003505;28;19921;-86
2023/07/07 07:51:24;;;;;;;;;;;;;;;6.20;100.00;99920.59;5003231;28;20348;-84
2023/07/07 07:53:49;;;;;;;;;;;;;;;6.16;100.00;99924.22;5003358;28;19924;-84
2023/07/07 07:56:14;;;;;;;;;;;;;;;6.10;100.00;99919.94;5001596;28;19956;-85
2023/07/07 07:58:39;;;;;;;;;;;;;;;6.15;100.00;99925.09;5002916;28;19917;-85
2023/07/07 08:01:04;;;;;;;;;;;;;;;6.33;100.00;99916.78;5002868;28;20431;-86
2023/07/07 08:03:30;;;;;;;;;;;;;;;6.34;100.00;99913.25;5003585;28;19922;-87
2023/07/07 08:05:55;;;;;;;;;;;;;;;6.29;100.00;99919.53;5002898;28;19922;-85
2023/07/07 08:08:20;;;;;;;;;;;;;;;6.41;100.00;99913.97;5002456;28;19929;-88
2023/07/07 08:10:45;;;;;;;;;;;;;;;6.40;100.00;99914.00;5001464;28;19940;-84
2023/07/07 08:13:11;;;;;;;;;;;;;;;6.49;100.00;99905.88;5003133;28;19927;-88
2023/07/07 08:15:36;;;;;;;;;;;;;;;6.41;100.00;99910.47;5002981;28;20008;-89
2023/07/07 08:18:01;;;;;;;;;;;;;;;6.44;100.00;99919.16;5003025;28;19983;-81
2023/07/07 08:20:27;;;;;;;;;;;;;;;6.45;100.00;99912.13;5002754;28;20361;-86
2023/07/07 08:22:53;;;;;;;;;;;;;;;6.54;100.00;99920.69;5002432;28;20055;-91
2023/07/07 08:25:18;;;;;;;;;;;;;;;6.61;100.00;99916.13;5003551;28;19922;-85
2023/07/07 08:27:44;;;;;;;;;;;;;;;6.66;100.00;99916.00;5001011;28;19922;-89
2023/07/07 08:30:09;;;;;;;;;;;;;;;6.76;100.00;99912.22;5003300;28;20454;-88
2023/07/07 08:32:35;;;;;;;;;;;;;;;6.68;100.00;99917.69;5002859;28;20356;-86
2023/07/07 08:35:00;;;;;;;;;;;;;;;6.66;100.00;99919.50;5002619;28;20361;-92
2023/07/07 08:37:31;;;;;;;;;;;;;;;6.73;100.00;99922.84;4997768;28;19917;-84
2023/07/07 08:39:56;;;;;;;;;;;;;;;6.73;100.00;99920.22;4998821;28;19918;-86
2023/07/07 08:42:32;;;;;;;;;;;;;;;6.63;100.00;99914.31;4999001;28;19922;-87
2023/07/07 08:45:00;;;;;;;;;;;;;;;6.69;100.00;99914.16;5012857;28;19921;-87
2023/07/07 08:47:44;;;;;;;;;;;;;;;6.64;100.00;99913.41;5018763;28;20285;-84
2023/07/07 08:50:30;;;;;;;;;;;;;;;6.67;100.00;99915.09;4994042;28;19932;-88
2023/07/07 08:53:01;;;;;;;;;;;;;;;6.69;100.00;99908.03;5008922;28;19926;-87
2023/07/07 08:55:26;;;;;;;;;;;;;;;6.72;100.00;99918.50;5012192;28;19933;-84
2023/07/07 08:58:02;;;;;;;;;;;;;;;6.71;100.00;99908.84;5002110;28;19922;-84
2023/07/07 09:00:40;;;;;;;;;;;;;;;6.82;100.00;99906.81;4995222;28;20257;-86
2023/07/07 09:03:17;;;;;;;;;;;;;;;6.81;100.00;99917.38;5020071;28;19932;-90
2023/07/07 09:05:45;;;;;;;;;;;;;;;6.83;100.00;99912.94;4997165;28;19985;-86
2023/07/07 09:08:13;;;;;;;;;;;;;;;6.80;100.00;99899.88;5014344;28;19918;-85
2023/07/07 09:11:02;;;;;;;;;;;;;;;6.86;100.00;99904.97;5023307;28;20008;-86
2023/07/07 09:13:38;;;;;;;;;;;;;;;6.81;100.00;99893.69;5012543;28;19928;-89
2023/07/07 09:16:25;;;;;;;;;;;;;;;6.85;100.00;99892.72;5005567;28;20026;-85
2023/07/07 09:18:50;;;;;;;;;;;;;;;6.91;100.00;99882.03;5016050;28;19921;-85
2023/07/07 09:21:21;;;;;;;;;;;;;;;6.89;100.00;99878.53;5021557;28;19928;-87
2023/07/07 09:24:10;;;;;;;;;;;;;;;6.90;100.00;99881.13;5018392;28;20468;-93
2023/07/07 09:26:36;;;;;;;;;;;;;;;6.84;100.00;99888.34;5014474;28;19924;-85
2023/07/07 09:29:04;;;;;;;;;;;;;;;6.97;100.00;99889.72;5024013;28;19918;-85
2023/07/07 09:31:31;;;;;;;;;;;;;;;7.17;100.00;99885.72;5025298;28;20000;-84
2023/07/07 09:33:59;;;;;;;;;;;;;;;6.96;100.00;99880.13;5015331;28;19917;-90
2023/07/07 09:36:24;;;;;;;;;;;;;;;6.90;100.00;99885.53;5015351;28;20390;-86
2023/07/07 09:39:04;;;;;;;;;;;;;;;6.90;100.00;99875.00;5003288;28;19918;-85
2023/07/07 09:42:01;;;;;;;;;;;;;;;7.05;100.00;99879.88;5021245;28;19927;-86
2023/07/07 09:44:40;;;;;;;;;;;;;;;7.60;100.00;99882.72;4919896;29;20034;-84
2023/07/07 09:47:18;;;;;;;;;;;;;;;8.13;100.00;99892.56;4927043;28;20405;-89
2023/07/07 09:49:47;;;;;;;;;;;;;;;8.37;100.00;99890.06;5015467;28;19921;-84
2023/07/07 09:52:12;;;;;;;;;;;;;;;8.05;100.00;99885.81;5021237;28;20264;-88
2023/07/07 09:54:38;;;;;;;;;;;;;;;7.41;100.00;99879.75;5025560;28;20221;-85
2023/07/07 09:57:15;;;;;;;;;;;;;;;7.21;100.00;99882.09;5023640;28;19913;-84
2023/07/07 09:59:42;;;;;;;;;;;;;;;7.21;100.00;99879.44;5016556;28;19921;-84
2023/07/07 10:02:27;;;;;;;;;;;;;;;7.09;100.00;99881.50;5014284;28;19953;-87
2023/07/07 10:04:59;;;;;;;;;;;;;;;7.19;100.00;99876.00;5014694;28;19917;-86
2023/07/07 10:07:26;;;;;;;;;;;;;;;7.06;100.00;99873.69;5013875;28;19929;-85
2023/07/07 10:09:51;;;;;;;;;;;;;;;7.09;100.00;99875.38;5023156;28;20492;-86
2023/07/07 10:12:17;;;;;;;;;;;;;;;7.09;100.00;99875.38;5023746;28;19914;-87
2023/07/07 10:14:43;;;;;;;;;;;;;;;7.04;100.00;99878.13;5007019;28;20070;-85
2023/07/07 10:17:08;;;;;;;;;;;;;;;7.06;100.00;99875.47;5024676;28;20023;-90
2023/07/07 10:19:39;;;;;;;;;;;;;;;6.97;100.00;99875.72;5006023;28;20067;-86
2023/07/07 10:22:05;;;;;;;;;;;;;;;6.93;100.00;99868.81;5022370;28;19928;-86
2023/07/07 10:24:30;;;;;;;;;;;;;;;7.01;100.00;99862.41;5017076;28;20003;-86
2023/07/07 10:26:57;;;;;;;;;;;;;;;6.98;100.00;99867.75;5017187;28;20019;-86
2023/07/07 10:29:26;;;;;;;;;;;;;;;7.19;100.00;99870.72;5024445;28;19921;-85
2023/07/07 10:31:52;;;;;;;;;;;;;;;6.97;100.00;99868.66;5023463;28;19924;-86
2023/07/07 10:34:29;;;;;;;;;;;;;;;7.03;100.00;99863.22;5005710;28;19917;-83
2023/07/07 10:36:55;;;;;;;;;;;;;;;7.01;100.00;99859.78;5023918;28;20016;-88
2023/07/07 10:39:25;;;;;;;;;;;;;;;7.06;100.00;99865.78;5020742;28;19924;-85
2023/07/07 10:41:51;;;;;;;;;;;;;;;7.24;100.00;99864.44;5021633;28;20021;-85
2023/07/07 10:44:16;;;;;;;;;;;;;;;7.16;100.00;99865.53;5023986;28;20012;-87
2023/07/07 10:46:42;;;;;;;;;;;;;;;7.57;100.00;99866.13;5015451;28;20065;-88
2023/07/07 10:49:13;;;;;;;;;;;;;;;8.21;100.00;99870.38;4996916;28;20023;-84
2023/07/07 10:51:55;;;;;;;;;;;;;;;8.52;100.00;99871.13;5013926;28;19917;-87
2023/07/07 10:54:38;;;;;;;;;;;;;;;8.75;100.00;99863.34;5007156;28;19918;-85
2023/07/07 10:57:12;;;;;;;;;;;;;;;8.21;100.00;99865.09;5002720;28;20503;-84
2023/07/07 11:00:00;;;;;;;;;;;;;;;7.75;100.00;99870.84;5013967;28;19917;-87
2023/07/07 11:02:26;;;;;;;;;;;;;;;7.66;100.00;99862.34;4989592;28;19921;-84
2023/07/07 11:05:04;;;;;;;;;;;;;;;7.57;100.00;99863.50;4996433;28;20386;-84
2023/07/07 11:07:38;;;;;;;;;;;;;;;7.36;100.00;99855.31;5013605;28;19921;-83
2023/07/07 11:10:03;;;;;;;;;;;;;;;7.24;100.00;99851.25;5013629;28;19917;-91
2023/07/07 11:12:44;;;;;;;;;;;;;;;7.21;100.00;99848.69;5012583;28;19924;-91
2023/07/07 11:15:21;;;;;;;;;;;;;;;7.11;100.00;99836.66;5004309;28;19918;-89
2023/07/07 11:17:52;;;;;;;;;;;;;;;7.42;100.00;99841.94;5013252;28;19970;-89
2023/07/07 11:20:36;;;;;;;;;;;;;;;8.24;100.00;99844.72;5013018;28;19957;-89
2023/07/07 11:23:19;;;;;;;;;;;;;;;8.53;100.00;99841.16;5013597;28;20047;-88
2023/07/07 11:25:54;;;;;;;;;;;;;;;8.81;100.00;99827.00;4994922;28;19917;-91
2023/07/07 11:28:26;;;;;;;;;;;;;;;8.57;100.00;99839.28;5013534;28;20364;-90
2023/07/07 11:30:54;;;;;;;;;;;;;;;7.92;100.00;99827.28;5014043;28;20427;-90
2023/07/07 11:33:31;;;;;;;;;;;;;;;7.67;100.00;99824.53;5015711;28;20373;-89
2023/07/07 11:36:04;;;;;;;;;;;;;;;7.71;100.00;99820.91;5012997;28;19928;-86
2023/07/07 11:38:47;;;;;;;;;;;;;;;8.29;100.00;99818.19;5013119;28;19925;-86
2023/07/07 11:41:20;;;;;;;;;;;;;;;8.82;100.00;99812.91;5012384;28;20335;-92
2023/07/07 11:44:08;;;;;;;;;;;;;;;9.03;100.00;99813.03;5012609;28;19928;-85
2023/07/07 11:46:36;;;;;;;;;;;;;;;8.91;100.00;99807.25;5012962;28;20365;-85
2023/07/07 11:49:08;;;;;;;;;;;;;;;8.15;100.00;99803.66;4999320;28;19927;-85
2023/07/07 11:51:41;;;;;;;;;;;;;;;15.43;100.00;99787.84;4995637;28;20357;-84
2023/07/07 11:54:27;;;;;;;;;;;;;;;11.28;100.00;99769.47;5012096;28;19960;-82
2023/07/07 11:56:58;;;;;;;;;;;;;;;9.63;100.00;99789.63;5010986;28;20279;-84
2023/07/07 11:59:33;;;;;;;;;;;;;;;9.72;100.00;99801.66;5004225;28;19921;-84
2023/07/07 12:01:58;;;;;;;;;;;;;;;9.75;100.00;99798.91;5012463;28;20472;-82
2023/07/07 12:04:30;;;;;;;;;;;;;;;9.29;100.00;99796.22;5012572;28;20012;-82
2023/07/07 12:07:01;;;;;;;;;;;;;;;8.58;100.00;99795.25;5021998;28;19964;-84
2023/07/07 12:09:26;;;;;;;;;;;;;;;8.33;100.00;99790.78;5022180;28;19917;-83
2023/07/07 12:11:57;;;;;;;;;;;;;;;8.13;100.00;99787.00;5021001;28;20032;-83
2023/07/07 12:14:39;;;;;;;;;;;;;;;7.96;100.00;99777.00;5015365;28;20490;-82
2023/07/07 12:17:07;;;;;;;;;;;;;;;8.12;100.00;99777.38;5012464;28;19961;-82
2023/07/07 12:19:41;;;;;;;;;;;;;;;8.04;100.00;99779.41;5012531;28;20365;-83
2023/07/07 12:22:13;;;;;;;;;;;;;;;8.96;100.00;99770.09;5012281;28;19948;-82
2023/07/07 12:24:41;;;;;;;;;;;;;;;9.41;100.00;99763.16;4993948;28;20369;-82
2023/07/07 12:27:15;;;;;;;;;;;;;;;9.61;100.00;99762.38;5011663;28;20019;-84
2023/07/07 12:29:42;;;;;;;;;;;;;;;9.50;100.00;99762.78;5011900;28;20353;-83
2023/07/07 12:32:08;;;;;;;;;;;;;;;8.62;100.00;99767.81;5011433;28;20004;-84
2023/07/07 12:34:37;;;;;;;;;;;;;;;8.18;100.00;99763.97;5019751;28;20016;-82
2023/07/07 12:37:22;;;;;;;;;;;;;;;8.05;100.00;99748.59;5012004;28;19959;-85
2023/07/07 12:39:50;;;;;;;;;;;;;;;7.96;100.00;99747.09;5012010;28;19917;-83
2023/07/07 12:42:16;;;;;;;;;;;;;;;7.93;100.00;99745.44;5012951;28;19925;-84
2023/07/07 12:44:41;;;;;;;;;;;;;;;8.67;100.00;99739.47;5021679;28;19921;-82
2023/07/07 12:47:17;;;;;;;;;;;;;;;9.20;100.00;99741.03;5021987;28;20020;-82
2023/07/07 12:49:43;;;;;;;;;;;;;;;9.36;100.00;99741.31;5021154;28;19971;-83
2023/07/07 12:52:11;;;;;;;;;;;;;;;9.37;100.00;99740.41;5022106;28;19963;-83
2023/07/07 12:54:37;;;;;;;;;;;;;;;8.60;100.00;99748.50;5021731;28;20284;-83
2023/07/07 12:57:03;;;;;;;;;;;;;;;8.26;100.00;99747.00;5020204;28;19928;-82
2023/07/07 12:59:36;;;;;;;;;;;;;;;8.34;100.00;99737.03;5022246;28;19987;-81
2023/07/07 13:02:09;;;;;;;;;;;;;;;8.24;100.00;99751.47;5020838;28;20289;-81
2023/07/07 13:04:38;;;;;;;;;;;;;;;8.17;100.00;99741.13;5021114;28;19922;-85
2023/07/07 13:07:04;;;;;;;;;;;;;;;7.99;100.00;99737.34;5020753;28;19928;-81
2023/07/07 13:09:41;;;;;;;;;;;;;;;7.90;100.00;99735.00;5021445;28;19921;-83
2023/07/07 13:12:27;;;;;;;;;;;;;;;7.89;100.00;99732.41;5001948;28;19932;-81
2023/07/07 13:15:02;;;;;;;;;;;;;;;7.98;100.00;99721.56;5021852;28;20002;-82
2023/07/07 13:17:27;;;;;;;;;;;;;;;8.56;100.00;99725.78;5021239;28;19925;-82
2023/07/07 13:20:00;;;;;;;;;;;;;;;9.06;100.00;99731.84;5022102;28;19924;-83
2023/07/07 13:22:30;;;;;;;;;;;;;;;9.34;100.00;99722.88;5021004;28;19976;-82
2023/07/07 13:24:57;;;;;;;;;;;;;;;9.58;100.00;99726.31;5021192;28;20367;-83
2023/07/07 13:27:23;;;;;;;;;;;;;;;8.75;100.00;99725.97;5019095;28;19918;-82
2023/07/07 13:29:50;;;;;;;;;;;;;;;8.44;100.00;99722.66;5021716;28;19921;-82
2023/07/07 13:32:25;;;;;;;;;;;;;;;8.19;100.00;99723.44;5021717;28;19922;-84
2023/07/07 13:34:51;;;;;;;;;;;;;;;8.02;100.00;99720.53;5021544;28;19917;-82
2023/07/07 13:37:16;;;;;;;;;;;;;;;8.05;100.00;99725.69;5021478;28;19928;-83
2023/07/07 13:39:42;;;;;;;;;;;;;;;8.00;100.00;99731.13;5022123;28;20307;-82
2023/07/07 13:42:07;;;;;;;;;;;;;;;7.98;100.00;99724.19;5020496;28;19930;-82
2023/07/07 13:44:33;;;;;;;;;;;;;;;8.71;100.00;99714.63;5025300;28;19917;-84
2023/07/07 13:47:03;;;;;;;;;;;;;;;9.38;100.00;99726.25;5025258;28;19917;-82
2023/07/07 13:49:31;;;;;;;;;;;;;;;9.57;100.00;99718.44;5024803;28;19991;-87
2023/07/07 13:51:56;;;;;;;;;;;;;;;9.47;100.00;99720.59;5024185;28;20012;-82
2023/07/07 13:54:22;;;;;;;;;;;;;;;8.81;100.00;99725.75;5025325;28;19965;-82
2023/07/07 13:56:51;;;;;;;;;;;;;;;8.38;100.00;99717.56;5023696;28;19921;-84
2023/07/07 13:59:19;;;;;;;;;;;;;;;8.24;100.00;99719.81;5025377;28;19972;-89
2023/07/07 14:01:45;;;;;;;;;;;;;;;8.12;100.00;99716.66;5024621;28;19971;-82
2023/07/07 14:04:15;;;;;;;;;;;;;;;8.04;100.00;99713.44;5024634;28;19921;-84
2023/07/07 14:06:41;;;;;;;;;;;;;;;7.95;100.00;99711.94;5024257;28;19928;-83
2023/07/07 14:09:23;;;;;;;;;;;;;;;7.96;100.00;99705.78;5025608;28;19925;-83
2023/07/07 14:11:50;;;;;;;;;;;;;;;7.86;100.00;99711.41;5023467;28;19913;-83
2023/07/07 14:14:15;;;;;;;;;;;;;;;7.90;100.00;99699.84;5005735;28;19918;-81
2023/07/07 14:16:44;;;;;;;;;;;;;;;7.87;100.00;99705.22;5024334;28;20403;-83
2023/07/07 14:19:15;;;;;;;;;;;;;;;7.90;100.00;99700.69;5023999;28;19979;-82
2023/07/07 14:21:41;;;;;;;;;;;;;;;7.82;100.00;99703.56;5006681;28;20020;-83
2023/07/07 14:24:11;;;;;;;;;;;;;;;7.77;100.00;99699.34;5024239;28;20424;-83
2023/07/07 14:26:36;;;;;;;;;;;;;;;7.77;100.00;99694.97;5023163;28;19918;-82
2023/07/07 14:29:04;;;;;;;;;;;;;;;7.85;100.00;99696.47;5006485;28;20334;-83
2023/07/07 14:31:32;;;;;;;;;;;;;;;7.86;100.00;99687.66;5023523;28;19925;-82
2023/07/07 14:34:03;;;;;;;;;;;;;;;8.83;100.00;99693.06;5024448;28;19917;-83
2023/07/07 14:36:32;;;;;;;;;;;;;;;9.25;100.00;99686.19;5023221;28;19922;-82
2023/07/07 14:39:01;;;;;;;;;;;;;;;9.51;100.00;99689.59;5024828;28;19924;-84
2023/07/07 14:41:32;;;;;;;;;;;;;;;9.29;100.00;99693.09;5022803;28;19918;-82
2023/07/07 14:43:59;;;;;;;;;;;;;;;8.43;100.00;99696.28;4987847;28;19921;-81
2023/07/07 14:46:27;;;;;;;;;;;;;;;8.18;100.00;99694.47;5004311;28;19968;-81
2023/07/07 14:48:54;;;;;;;;;;;;;;;8.08;100.00;99686.00;5004278;28;19969;-83
2023/07/07 14:51:22;;;;;;;;;;;;;;;8.12;100.00;99685.00;5003006;28;19921;-83
2023/07/07 14:53:51;;;;;;;;;;;;;;;8.08;100.00;99687.78;5003682;28;20396;-83
2023/07/07 14:56:23;;;;;;;;;;;;;;;8.05;100.00;99680.84;5003238;28;20381;-82
2023/07/07 14:58:54;;;;;;;;;;;;;;;7.85;100.00;99670.97;4986642;28;19996;-82
2023/07/07 15:01:21;;;;;;;;;;;;;;;8.04;100.00;99668.56;5003965;28;19957;-82
2023/07/07 15:03:47;;;;;;;;;;;;;;;8.96;100.00;99672.31;5004076;28;19921;-82
2023/07/07 15:06:15;;;;;;;;;;;;;;;9.33;100.00;99664.75;4986679;28;20377;-86
2023/07/07 15:08:43;;;;;;;;;;;;;;;9.54;100.00;99674.47;4986840;28;19918;-81
2023/07/07 15:11:11;;;;;;;;;;;;;;;9.35;100.00;99668.19;5002848;28;20412;-83
2023/07/07 15:13:36;;;;;;;;;;;;;;;8.79;100.00;99666.81;4986042;28;19928;-83
2023/07/07 15:16:03;;;;;;;;;;;;;;;8.53;100.00;99671.28;5004275;28;19940;-84
2023/07/07 15:18:28;;;;;;;;;;;;;;;8.15;100.00;99660.25;5003957;28;19921;-81
2023/07/07 15:20:54;;;;;;;;;;;;;;;8.06;100.00;99666.75;4986172;28;19967;-85
2023/07/07 15:23:19;;;;;;;;;;;;;;;8.06;100.00;99665.84;5003503;28;20376;-82
2023/07/07 15:25:45;;;;;;;;;;;;;;;7.97;100.00;99659.97;5002798;28;20373;-84
2023/07/07 15:28:14;;;;;;;;;;;;;;;8.57;100.00;99664.09;4985315;28;20392;-83
2023/07/07 15:30:39;;;;;;;;;;;;;;;9.32;100.00;99663.00;4986050;28;19921;-81
2023/07/07 15:33:05;;;;;;;;;;;;;;;9.68;100.00;99660.66;5003534;28;19929;-83
2023/07/07 15:35:30;;;;;;;;;;;;;;;9.86;100.00;99660.84;5003229;28;20296;-82
2023/07/07 15:37:59;;;;;;;;;;;;;;;9.39;100.00;99653.94;5003636;28;19929;-83
2023/07/07 15:40:24;;;;;;;;;;;;;;;8.67;100.00;99647.00;5002346;28;19917;-83
2023/07/07 15:42:50;;;;;;;;;;;;;;;8.52;100.00;99649.28;5001777;28;19922;-83
2023/07/07 15:45:16;;;;;;;;;;;;;;;9.37;100.00;99645.22;5003552;28;19921;-82
2023/07/07 15:47:42;;;;;;;;;;;;;;;9.79;100.00;99636.41;5003461;28;19917;-84
2023/07/07 15:50:12;;;;;;;;;;;;;;;9.99;100.00;99643.53;5003532;28;19929;-82
2023/07/07 15:52:37;;;;;;;;;;;;;;;10.07;100.00;99635.22;5002625;28;19996;-82
2023/07/07 15:55:02;;;;;;;;;;;;;;;9.18;100.00;99635.34;5003193;28;20012;-82
2023/07/07 15:57:28;;;;;;;;;;;;;;;9.25;100.00;99631.56;5001376;28;19957;-82
2023/07/07 15:59:53;;;;;;;;;;;;;;;18.72;100.00;99592.47;5002939;28;20377;-82
2023/07/07 16:02:20;;;;;;;;;;;;;;;12.15;100.00;99610.38;5002803;28;19922;-81
2023/07/07 16:04:46;;;;;;;;;;;;;;;10.76;100.00;99629.56;5002001;28;19921;-81
2023/07/07 16:07:15;;;;;;;;;;;;;;;9.99;100.00;99633.78;5002693;28;20262;-81
2023/07/07 16:09:40;;;;;;;;;;;;;;;9.27;100.00;99632.34;5003038;28;19941;-81
2023/07/07 16:12:10;;;;;;;;;;;;;;;9.01;100.00;99628.06;5001819;28;20339;-82
2023/07/07 16:14:36;;;;;;;;;;;;;;;8.76;100.00;99622.91;5001801;28;20008;-83
2023/07/07 16:17:01;;;;;;;;;;;;;;;8.75;100.00;99615.88;5002471;28;19972;-83
2023/07/07 16:19:26;;;;;;;;;;;;;;;9.26;100.00;99622.69;5003068;28;19917;-81
2023/07/07 16:21:52;;;;;;;;;;;;;;;9.49;100.00;99627.97;5002645;28;19921;-81
2023/07/07 16:24:17;;;;;;;;;;;;;;;9.62;100.00;99630.06;5002532;28;20373;-81
2023/07/07 16:26:46;;;;;;;;;;;;;;;9.55;100.00;99623.28;5001375;28;20294;-82
2023/07/07 16:29:12;;;;;;;;;;;;;;;8.98;100.00;99627.34;5002743;28;19984;-83
2023/07/07 16:31:38;;;;;;;;;;;;;;;8.68;100.00;99624.94;5002508;28;19918;-82
2023/07/07 16:34:03;;;;;;;;;;;;;;;8.62;100.00;99628.69;4984948;28;20024;-81
2023/07/07 16:36:29;;;;;;;;;;;;;;;8.49;100.00;99633.56;5002743;28;19925;-81
2023/07/07 16:38:54;;;;;;;;;;;;;;;8.42;100.00;99624.09;5002527;28;20353;-82
2023/07/07 16:41:20;;;;;;;;;;;;;;;8.41;100.00;99621.50;5001182;28;20331;-82
2023/07/07 16:43:46;;;;;;;;;;;;;;;8.42;100.00;99618.81;5002831;28;20404;-81
2023/07/07 16:46:12;;;;;;;;;;;;;;;8.35;100.00;99619.97;5002026;28;19976;-81
2023/07/07 16:48:38;;;;;;;;;;;;;;;8.31;100.00;99616.59;5001341;28;20361;-81
2023/07/07 16:51:03;;;;;;;;;;;;;;;8.82;100.00;99620.03;5002337;28;19925;-81
2023/07/07 16:53:28;;;;;;;;;;;;;;;9.18;100.00;99621.28;5003178;28;19928;-82
2023/07/07 16:55:53;;;;;;;;;;;;;;;9.41;100.00;99620.34;5000993;28;19917;-81
2023/07/07 16:58:19;;;;;;;;;;;;;;;9.52;100.00;99623.41;5002654;28;19921;-81
2023/07/07 17:00:49;;;;;;;;;;;;;;;9.07;100.00;99630.47;4998979;28;20000;-88
2023/07/07 17:03:15;;;;;;;;;;;;;;;8.71;100.00;99615.13;5001663;28;19922;-82
2023/07/07 17:05:41;;;;;;;;;;;;;;;9.13;100.00;99618.81;5001365;28;20008;-83
2023/07/07 17:08:11;;;;;;;;;;;;;;;9.45;100.00;99609.56;5000283;28;19937;-81
2023/07/07 17:10:38;;;;;;;;;;;;;;;9.60;100.00;99589.56;4995539;28;20030;-80
2023/07/07 17:13:04;;;;;;;;;;;;;;;9.74;100.00;99561.69;4996758;28;19924;-81
2023/07/07 17:15:29;;;;;;;;;;;;;;;9.28;100.00;99559.16;4999727;28;19932;-80
2023/07/07 17:17:55;;;;;;;;;;;;;;;8.86;100.00;99566.13;5002860;28;19918;-82
2023/07/07 17:20:24;;;;;;;;;;;;;;;9.29;100.00;99571.47;5005700;28;19971;-82
2023/07/07 17:22:50;;;;;;;;;;;;;;;9.57;100.00;99572.97;5005084;28;19925;-84
2023/07/07 17:25:16;;;;;;;;;;;;;;;9.75;100.00;99581.94;5004871;28;19921;-81
2023/07/07 17:27:42;;;;;;;;;;;;;;;9.80;100.00;99586.06;5004528;28;20789;-80
2023/07/07 17:30:16;;;;;;;;;;;;;;;9.21;100.00;99582.34;5003849;28;19925;-81
2023/07/07 17:32:42;;;;;;;;;;;;;;;8.93;100.00;99584.38;5001782;28;19922;-83
2023/07/07 17:35:10;;;;;;;;;;;;;;;8.80;100.00;99581.34;5004594;28;19980;-84
2023/07/07 17:37:35;;;;;;;;;;;;;;;8.72;100.00;99582.50;5001787;28;19921;-81
2023/07/07 17:40:00;;;;;;;;;;;;;;;9.08;100.00;99583.78;5005622;28;19979;-81
2023/07/07 17:42:25;;;;;;;;;;;;;;;9.45;100.00;99579.63;5010569;28;19927;-85
2023/07/07 17:44:51;;;;;;;;;;;;;;;9.68;100.00;99577.81;5005322;28;20390;-82
2023/07/07 17:47:16;;;;;;;;;;;;;;;9.76;100.00;99573.88;5024523;28;20407;-82
2023/07/07 17:49:41;;;;;;;;;;;;;;;9.48;100.00;99574.22;5021822;28;19921;-87
2023/07/07 17:52:07;;;;;;;;;;;;;;;9.45;100.00;99563.78;5004295;28;20291;-81
2023/07/07 17:54:33;;;;;;;;;;;;;;;9.73;100.00;99574.06;5013458;28;19922;-82
2023/07/07 17:56:58;;;;;;;;;;;;;;;9.87;100.00;99565.50;5011060;28;19929;-81
2023/07/07 17:59:23;;;;;;;;;;;;;;;9.95;100.00;99568.66;5001772;28;19917;-83
2023/07/07 18:01:51;;;;;;;;;;;;;;;9.35;100.00;99567.69;5016577;28;19925;-81
2023/07/07 18:04:18;;;;;;;;;;;;;;;9.44;100.00;99562.91;5019275;28;19932;-85
2023/07/07 18:06:48;;;;;;;;;;;;;;;9.76;100.00;99567.75;5004930;28;20265;-82
2023/07/07 18:09:14;;;;;;;;;;;;;;;9.87;100.00;99560.19;5017944;28;19926;-80
2023/07/07 18:11:39;;;;;;;;;;;;;;;9.93;100.00;99573.19;5013627;28;20403;-85
2023/07/07 18:14:05;;;;;;;;;;;;;;;9.25;100.00;99565.47;5022306;28;19925;-81
2023/07/07 18:16:31;;;;;;;;;;;;;;;9.01;100.00;99569.06;5015245;28;20019;-81
2023/07/07 18:18:57;;;;;;;;;;;;;;;8.84;100.00;99567.97;5022422;28;19922;-82
2023/07/07 18:21:25;;;;;;;;;;;;;;;8.73;100.00;99557.81;5013750;28;20013;-82
2023/07/07 18:23:50;;;;;;;;;;;;;;;8.97;100.00;99567.50;5012261;28;19972;-86
2023/07/07 18:26:24;;;;;;;;;;;;;;;9.45;100.00;99569.06;5009990;28;20376;-81
2023/07/07 18:28:50;;;;;;;;;;;;;;;9.69;100.00;99576.88;5001483;28;19969;-81
2023/07/07 18:31:24;;;;;;;;;;;;;;;9.82;100.00;99583.38;5012472;28;19964;-82
2023/07/07 18:33:49;;;;;;;;;;;;;;;9.57;100.00;99584.44;5022608;28;20126;-83